Naples, NY

12:13 PM EDT on October 30, 2014 (GMT -0400)
Atlanta | Change Station
CLOSE
Current Station
Personal Weather Station
Location: Atlanta, NY
Elevation: 1329 ft
Nearby Weather Stations

Elev 1329 ft 42.56 °N, 77.47 °W | Updated 6 minutes ago

Overcast
Overcast
43.2 °F
Feels Like 43 °F
N
2.7
Wind Variable Wind from WSW

Today
High -- | Low -- °F
--% Chance of Precip.
Yesterday
High -- | Low -- °F
Precip. -- in
7:41 AM 6:05 PM
Waxing Crescent, 45% visible
Pressure 30.12 in
Visibility 10.0 miles
Clouds Overcast 3300 ft
Windchill 43 °F
Dew Point 34 °F
Humidity 71%
Rainfall 0.00 in
Snow Depth Not available.
UV 1 out of 12
Pollen .30 out of 12
Air Quality Not available.
Flu Activity Not available.
METAR KDSV 301554Z AUTO 32009KT 10SM OVC033 08/02 A3008 RMK AO2 SLP198 T00780017

More Conditions Fewer Conditions

Pressure 30.12 in
Visibility 10.0 miles
Clouds Overcast 3300 ft
Windchill 43 °F
Dew Point 34 °F
Humidity 71%
Rainfall 0.00 in
Snow Depth Not available.
UV 1 out of 12
Pollen .30 out of 12
Air Quality Not available.
Flu Activity Not available.
METAR KDSV 301554Z AUTO 32009KT 10SM OVC033 08/02 A3008 RMK AO2 SLP198 T00780017

More Conditions Fewer Conditions

10-Day Weather Forecast

Almanac

Astronomy

Oct. 30, 2014 Rise Set
Actual Time
Civil Twilight
Nautical Twilight
Astronomical Twilight
Moon
Length of Visible Light
Length of Day
Tomorrow will be .
, % of the Moon is Illuminated

Today's Extremes

State Highs State Lows

Community

WunderPhotos

Upload Photos

1,766,398 photos uploaded!

WunderBlogs® & News

Nearby

Air Quality

  Air Quality AQ Index Pollutant
Not available.

Snow Depth

Station Depth Elevation

Earthquake Activity

City Distance Mag. Time & Date
Minimum magnitude displayed is 2.5.

Coastal Water Temperatures

Place Temperature

Nearby Weather Stations